sensor_id;sensor_type;location;lat;lon;timestamp;P1;durP1;ratioP1;P2;durP2;ratioP2
75823;SDS011;64457;51.976;9.834;2023-10-08T00:01:17;19.83;;;5.30;;
75823;SDS011;64457;51.976;9.834;2023-10-08T00:03:46;24.57;;;5.50;;
75823;SDS011;64457;51.976;9.834;2023-10-08T00:06:17;17.40;;;4.90;;
75823;SDS011;64457;51.976;9.834;2023-10-08T00:08:46;15.27;;;4.63;;
75823;SDS011;64457;51.976;9.834;2023-10-08T00:11:14;21.83;;;5.83;;
75823;SDS011;64457;51.976;9.834;2023-10-08T00:13:42;23.93;;;6.10;;
75823;SDS011;64457;51.976;9.834;2023-10-08T00:16:11;21.77;;;5.70;;
75823;SDS011;64457;51.976;9.834;2023-10-08T00:18:42;21.93;;;6.17;;
75823;SDS011;64457;51.976;9.834;2023-10-08T00:21:16;16.27;;;5.23;;
75823;SDS011;64457;51.976;9.834;2023-10-08T00:23:51;19.70;;;5.67;;
75823;SDS011;64457;51.976;9.834;2023-10-08T00:26:20;23.43;;;5.90;;
75823;SDS011;64457;51.976;9.834;2023-10-08T00:28:54;14.07;;;5.60;;
75823;SDS011;64457;51.976;9.834;2023-10-08T00:31:22;19.43;;;5.27;;
75823;SDS011;64457;51.976;9.834;2023-10-08T00:33:55;12.00;;;3.63;;
75823;SDS011;64457;51.976;9.834;2023-10-08T00:36:24;13.10;;;3.83;;
75823;SDS011;64457;51.976;9.834;2023-10-08T00:38:51;9.37;;;3.93;;
75823;SDS011;64457;51.976;9.834;2023-10-08T00:41:19;8.77;;;3.30;;
75823;SDS011;64457;51.976;9.834;2023-10-08T00:43:48;9.03;;;2.77;;
75823;SDS011;64457;51.976;9.834;2023-10-08T00:46:16;9.53;;;3.20;;
75823;SDS011;64457;51.976;9.834;2023-10-08T00:48:48;11.00;;;2.80;;
75823;SDS011;64457;51.976;9.834;2023-10-08T00:51:19;5.27;;;1.30;;
75823;SDS011;64457;51.976;9.834;2023-10-08T00:53:54;4.20;;;0.60;;
75823;SDS011;64457;51.976;9.834;2023-10-08T00:56:31;4.53;;;0.60;;
75823;SDS011;64457;51.976;9.834;2023-10-08T00:59:11;6.20;;;0.90;;
75823;SDS011;64457;51.976;9.834;2023-10-08T01:01:40;4.30;;;0.60;;
75823;SDS011;64457;51.976;9.834;2023-10-08T01:04:16;4.07;;;0.50;;
75823;SDS011;64457;51.976;9.834;2023-10-08T01:06:47;4.20;;;0.60;;
75823;SDS011;64457;51.976;9.834;2023-10-08T01:09:20;4.10;;;0.60;;
75823;SDS011;64457;51.976;9.834;2023-10-08T01:12:09;4.17;;;0.50;;
75823;SDS011;64457;51.976;9.834;2023-10-08T01:14:41;4.40;;;0.70;;
75823;SDS011;64457;51.976;9.834;2023-10-08T01:17:09;4.17;;;0.60;;
75823;SDS011;64457;51.976;9.834;2023-10-08T01:19:40;4.07;;;0.50;;
75823;SDS011;64457;51.976;9.834;2023-10-08T01:22:12;4.80;;;0.60;;
75823;SDS011;64457;51.976;9.834;2023-10-08T01:24:43;4.60;;;0.60;;
75823;SDS011;64457;51.976;9.834;2023-10-08T01:27:13;4.23;;;0.60;;
75823;SDS011;64457;51.976;9.834;2023-10-08T01:29:46;4.93;;;0.90;;
75823;SDS011;64457;51.976;9.834;2023-10-08T01:32:15;4.40;;;0.70;;
75823;SDS011;64457;51.976;9.834;2023-10-08T01:37:30;4.70;;;0.80;;
75823;SDS011;64457;51.976;9.834;2023-10-08T01:39:59;4.63;;;0.80;;
75823;SDS011;64457;51.976;9.834;2023-10-08T01:42:31;4.30;;;0.80;;
75823;SDS011;64457;51.976;9.834;2023-10-08T01:45:04;4.30;;;0.70;;
75823;SDS011;64457;51.976;9.834;2023-10-08T01:47:35;4.17;;;0.60;;
75823;SDS011;64457;51.976;9.834;2023-10-08T01:50:02;3.93;;;0.60;;
75823;SDS011;64457;51.976;9.834;2023-10-08T01:52:36;4.40;;;0.80;;
75823;SDS011;64457;51.976;9.834;2023-10-08T01:55:06;4.23;;;0.60;;
75823;SDS011;64457;51.976;9.834;2023-10-08T01:57:36;4.40;;;0.70;;
75823;SDS011;64457;51.976;9.834;2023-10-08T02:00:05;4.60;;;0.80;;
75823;SDS011;64457;51.976;9.834;2023-10-08T02:02:34;4.37;;;0.73;;
75823;SDS011;64457;51.976;9.834;2023-10-08T02:05:02;4.20;;;0.70;;
75823;SDS011;64457;51.976;9.834;2023-10-08T02:07:32;5.00;;;0.90;;
75823;SDS011;64457;51.976;9.834;2023-10-08T02:10:01;5.03;;;1.00;;
75823;SDS011;64457;51.976;9.834;2023-10-08T02:12:30;4.30;;;0.60;;
75823;SDS011;64457;51.976;9.834;2023-10-08T02:14:57;4.43;;;0.70;;
75823;SDS011;64457;51.976;9.834;2023-10-08T02:17:28;4.30;;;0.60;;
75823;SDS011;64457;51.976;9.834;2023-10-08T02:19:55;5.60;;;0.60;;
75823;SDS011;64457;51.976;9.834;2023-10-08T02:22:22;3.90;;;0.60;;
75823;SDS011;64457;51.976;9.834;2023-10-08T02:24:50;6.20;;;0.60;;
75823;SDS011;64457;51.976;9.834;2023-10-08T02:27:20;4.70;;;0.60;;
75823;SDS011;64457;51.976;9.834;2023-10-08T02:29:48;4.70;;;0.70;;
75823;SDS011;64457;51.976;9.834;2023-10-08T02:32:15;4.27;;;0.60;;
75823;SDS011;64457;51.976;9.834;2023-10-08T02:34:44;4.63;;;0.63;;
75823;SDS011;64457;51.976;9.834;2023-10-08T02:37:11;5.00;;;0.70;;
75823;SDS011;64457;51.976;9.834;2023-10-08T02:39:40;6.33;;;0.90;;
75823;SDS011;64457;51.976;9.834;2023-10-08T02:42:08;6.40;;;1.00;;
75823;SDS011;64457;51.976;9.834;2023-10-08T02:44:37;10.57;;;1.70;;
75823;SDS011;64457;51.976;9.834;2023-10-08T02:47:07;5.50;;;1.00;;
75823;SDS011;64457;51.976;9.834;2023-10-08T02:49:38;7.97;;;1.27;;
75823;SDS011;64457;51.976;9.834;2023-10-08T02:52:08;10.00;;;1.23;;
75823;SDS011;64457;51.976;9.834;2023-10-08T02:54:36;10.50;;;1.50;;
75823;SDS011;64457;51.976;9.834;2023-10-08T02:57:04;7.47;;;0.93;;
75823;SDS011;64457;51.976;9.834;2023-10-08T02:59:36;10.67;;;1.47;;
75823;SDS011;64457;51.976;9.834;2023-10-08T03:02:07;6.53;;;1.10;;
75823;SDS011;64457;51.976;9.834;2023-10-08T03:04:44;9.60;;;1.33;;
75823;SDS011;64457;51.976;9.834;2023-10-08T03:07:12;8.10;;;1.30;;
75823;SDS011;64457;51.976;9.834;2023-10-08T03:09:46;8.90;;;1.17;;
75823;SDS011;64457;51.976;9.834;2023-10-08T03:12:28;10.70;;;1.70;;
75823;SDS011;64457;51.976;9.834;2023-10-08T03:15:01;10.40;;;1.50;;
75823;SDS011;64457;51.976;9.834;2023-10-08T03:17:53;11.93;;;1.60;;
75823;SDS011;64457;51.976;9.834;2023-10-08T03:20:22;9.93;;;2.23;;
75823;SDS011;64457;51.976;9.834;2023-10-08T03:23:03;13.17;;;1.77;;
75823;SDS011;64457;51.976;9.834;2023-10-08T03:25:38;9.73;;;1.83;;
75823;SDS011;64457;51.976;9.834;2023-10-08T03:28:08;6.23;;;1.27;;
75823;SDS011;64457;51.976;9.834;2023-10-08T03:30:39;11.70;;;1.37;;
75823;SDS011;64457;51.976;9.834;2023-10-08T03:33:16;9.50;;;1.63;;
75823;SDS011;64457;51.976;9.834;2023-10-08T03:35:48;8.73;;;1.90;;
75823;SDS011;64457;51.976;9.834;2023-10-08T03:38:18;8.23;;;1.40;;
75823;SDS011;64457;51.976;9.834;2023-10-08T03:40:53;8.03;;;1.50;;
75823;SDS011;64457;51.976;9.834;2023-10-08T03:43:29;10.87;;;1.60;;
75823;SDS011;64457;51.976;9.834;2023-10-08T03:46:09;12.50;;;1.70;;
75823;SDS011;64457;51.976;9.834;2023-10-08T03:48:41;11.53;;;1.83;;
75823;SDS011;64457;51.976;9.834;2023-10-08T03:51:11;6.60;;;1.20;;
75823;SDS011;64457;51.976;9.834;2023-10-08T03:53:39;7.53;;;1.40;;
75823;SDS011;64457;51.976;9.834;2023-10-08T03:56:23;10.70;;;1.90;;
75823;SDS011;64457;51.976;9.834;2023-10-08T03:59:03;12.10;;;2.30;;
75823;SDS011;64457;51.976;9.834;2023-10-08T04:01:39;13.70;;;1.30;;
75823;SDS011;64457;51.976;9.834;2023-10-08T04:04:08;10.60;;;1.40;;
75823;SDS011;64457;51.976;9.834;2023-10-08T04:06:39;14.00;;;1.30;;
75823;SDS011;64457;51.976;9.834;2023-10-08T04:09:14;14.67;;;1.50;;
75823;SDS011;64457;51.976;9.834;2023-10-08T04:11:49;10.47;;;1.47;;
75823;SDS011;64457;51.976;9.834;2023-10-08T04:14:17;11.50;;;1.83;;
75823;SDS011;64457;51.976;9.834;2023-10-08T04:16:47;12.43;;;1.80;;
75823;SDS011;64457;51.976;9.834;2023-10-08T04:19:17;7.60;;;1.60;;
75823;SDS011;64457;51.976;9.834;2023-10-08T04:21:46;11.60;;;1.90;;
75823;SDS011;64457;51.976;9.834;2023-10-08T04:24:20;8.60;;;1.40;;
75823;SDS011;64457;51.976;9.834;2023-10-08T04:26:54;9.70;;;1.30;;
75823;SDS011;64457;51.976;9.834;2023-10-08T04:29:23;9.63;;;1.90;;
75823;SDS011;64457;51.976;9.834;2023-10-08T04:31:53;8.20;;;1.40;;
75823;SDS011;64457;51.976;9.834;2023-10-08T04:34:33;7.37;;;1.80;;
75823;SDS011;64457;51.976;9.834;2023-10-08T04:37:01;14.00;;;1.47;;
75823;SDS011;64457;51.976;9.834;2023-10-08T04:39:36;11.23;;;1.83;;
75823;SDS011;64457;51.976;9.834;2023-10-08T04:42:05;9.90;;;2.17;;
75823;SDS011;64457;51.976;9.834;2023-10-08T04:44:36;8.40;;;2.43;;
75823;SDS011;64457;51.976;9.834;2023-10-08T04:47:07;6.87;;;1.50;;
75823;SDS011;64457;51.976;9.834;2023-10-08T04:49:35;9.77;;;1.83;;
75823;SDS011;64457;51.976;9.834;2023-10-08T04:52:10;10.03;;;2.00;;
75823;SDS011;64457;51.976;9.834;2023-10-08T04:54:40;7.93;;;1.43;;
75823;SDS011;64457;51.976;9.834;2023-10-08T04:57:16;11.73;;;1.20;;
75823;SDS011;64457;51.976;9.834;2023-10-08T04:59:48;8.20;;;1.73;;
75823;SDS011;64457;51.976;9.834;2023-10-08T05:02:17;9.10;;;1.80;;
75823;SDS011;64457;51.976;9.834;2023-10-08T05:04:47;12.30;;;1.80;;
75823;SDS011;64457;51.976;9.834;2023-10-08T05:07:33;14.33;;;1.80;;
75823;SDS011;64457;51.976;9.834;2023-10-08T05:10:26;8.97;;;1.40;;
75823;SDS011;64457;51.976;9.834;2023-10-08T05:13:28;10.30;;;1.47;;
75823;SDS011;64457;51.976;9.834;2023-10-08T05:16:00;7.43;;;1.10;;
75823;SDS011;64457;51.976;9.834;2023-10-08T05:18:56;15.40;;;3.43;;
75823;SDS011;64457;51.976;9.834;2023-10-08T05:21:37;12.80;;;1.80;;
75823;SDS011;64457;51.976;9.834;2023-10-08T05:24:17;10.80;;;1.47;;
75823;SDS011;64457;51.976;9.834;2023-10-08T05:26:53;19.67;;;1.97;;
75823;SDS011;64457;51.976;9.834;2023-10-08T05:29:51;17.63;;;2.17;;
75823;SDS011;64457;51.976;9.834;2023-10-08T05:32:32;8.87;;;1.40;;
75823;SDS011;64457;51.976;9.834;2023-10-08T05:35:32;15.03;;;1.70;;
75823;SDS011;64457;51.976;9.834;2023-10-08T05:38:16;16.83;;;1.83;;
75823;SDS011;64457;51.976;9.834;2023-10-08T05:41:03;8.80;;;1.30;;
75823;SDS011;64457;51.976;9.834;2023-10-08T05:43:37;10.70;;;1.80;;
75823;SDS011;64457;51.976;9.834;2023-10-08T05:46:21;10.10;;;1.43;;
75823;SDS011;64457;51.976;9.834;2023-10-08T05:49:05;12.20;;;1.60;;
75823;SDS011;64457;51.976;9.834;2023-10-08T05:51:53;13.90;;;1.80;;
75823;SDS011;64457;51.976;9.834;2023-10-08T05:54:39;7.87;;;1.50;;
75823;SDS011;64457;51.976;9.834;2023-10-08T05:57:33;10.77;;;1.50;;
75823;SDS011;64457;51.976;9.834;2023-10-08T06:00:12;11.13;;;1.93;;
75823;SDS011;64457;51.976;9.834;2023-10-08T06:02:57;11.90;;;1.63;;
75823;SDS011;64457;51.976;9.834;2023-10-08T06:05:37;8.77;;;1.50;;
75823;SDS011;64457;51.976;9.834;2023-10-08T06:08:12;9.00;;;1.83;;
75823;SDS011;64457;51.976;9.834;2023-10-08T06:10:46;9.70;;;2.27;;
75823;SDS011;64457;51.976;9.834;2023-10-08T06:13:21;11.33;;;1.90;;
75823;SDS011;64457;51.976;9.834;2023-10-08T06:16:23;14.60;;;1.57;;
75823;SDS011;64457;51.976;9.834;2023-10-08T06:19:06;11.57;;;1.70;;
75823;SDS011;64457;51.976;9.834;2023-10-08T06:21:35;11.07;;;1.83;;
75823;SDS011;64457;51.976;9.834;2023-10-08T06:24:05;13.73;;;1.60;;
75823;SDS011;64457;51.976;9.834;2023-10-08T06:26:36;12.53;;;1.23;;
75823;SDS011;64457;51.976;9.834;2023-10-08T06:29:09;6.40;;;1.10;;
75823;SDS011;64457;51.976;9.834;2023-10-08T06:31:54;7.53;;;1.40;;
75823;SDS011;64457;51.976;9.834;2023-10-08T06:34:27;10.10;;;1.70;;
75823;SDS011;64457;51.976;9.834;2023-10-08T06:36:58;7.40;;;1.93;;
75823;SDS011;64457;51.976;9.834;2023-10-08T06:39:26;11.07;;;1.57;;
75823;SDS011;64457;51.976;9.834;2023-10-08T06:42:12;9.97;;;1.60;;
75823;SDS011;64457;51.976;9.834;2023-10-08T06:44:40;10.00;;;1.90;;
75823;SDS011;64457;51.976;9.834;2023-10-08T06:47:13;9.00;;;1.73;;
75823;SDS011;64457;51.976;9.834;2023-10-08T06:49:41;8.13;;;1.50;;
75823;SDS011;64457;51.976;9.834;2023-10-08T06:52:09;6.40;;;1.60;;
75823;SDS011;64457;51.976;9.834;2023-10-08T06:54:38;8.53;;;1.60;;
75823;SDS011;64457;51.976;9.834;2023-10-08T06:57:06;10.93;;;1.60;;
75823;SDS011;64457;51.976;9.834;2023-10-08T06:59:39;11.20;;;1.70;;
75823;SDS011;64457;51.976;9.834;2023-10-08T07:02:08;18.23;;;2.17;;
75823;SDS011;64457;51.976;9.834;2023-10-08T07:04:38;9.97;;;2.13;;
75823;SDS011;64457;51.976;9.834;2023-10-08T07:07:07;7.83;;;1.77;;
75823;SDS011;64457;51.976;9.834;2023-10-08T07:09:35;6.40;;;1.43;;
75823;SDS011;64457;51.976;9.834;2023-10-08T07:12:03;9.97;;;1.90;;
75823;SDS011;64457;51.976;9.834;2023-10-08T07:14:39;9.80;;;1.90;;
75823;SDS011;64457;51.976;9.834;2023-10-08T07:17:07;8.93;;;1.47;;
75823;SDS011;64457;51.976;9.834;2023-10-08T07:19:38;9.57;;;1.87;;
75823;SDS011;64457;51.976;9.834;2023-10-08T07:22:12;15.57;;;1.90;;
75823;SDS011;64457;51.976;9.834;2023-10-08T07:24:47;9.90;;;1.80;;
75823;SDS011;64457;51.976;9.834;2023-10-08T07:27:16;9.00;;;2.33;;
75823;SDS011;64457;51.976;9.834;2023-10-08T07:29:48;7.87;;;1.80;;
75823;SDS011;64457;51.976;9.834;2023-10-08T07:32:15;7.57;;;1.60;;
75823;SDS011;64457;51.976;9.834;2023-10-08T07:34:46;7.90;;;1.53;;
75823;SDS011;64457;51.976;9.834;2023-10-08T07:37:22;12.10;;;1.57;;
75823;SDS011;64457;51.976;9.834;2023-10-08T07:39:52;9.30;;;1.80;;
75823;SDS011;64457;51.976;9.834;2023-10-08T07:42:20;9.20;;;1.70;;
75823;SDS011;64457;51.976;9.834;2023-10-08T07:44:47;8.90;;;1.90;;
75823;SDS011;64457;51.976;9.834;2023-10-08T07:47:19;11.90;;;1.90;;
75823;SDS011;64457;51.976;9.834;2023-10-08T07:49:49;10.80;;;1.80;;
75823;SDS011;64457;51.976;9.834;2023-10-08T07:52:17;9.40;;;1.63;;
75823;SDS011;64457;51.976;9.834;2023-10-08T07:54:46;6.80;;;1.50;;
75823;SDS011;64457;51.976;9.834;2023-10-08T07:57:14;7.40;;;1.47;;
75823;SDS011;64457;51.976;9.834;2023-10-08T07:59:51;7.47;;;1.70;;
75823;SDS011;64457;51.976;9.834;2023-10-08T08:02:20;7.90;;;1.47;;
75823;SDS011;64457;51.976;9.834;2023-10-08T08:04:52;8.77;;;1.70;;
75823;SDS011;64457;51.976;9.834;2023-10-08T08:07:20;12.63;;;1.60;;
75823;SDS011;64457;51.976;9.834;2023-10-08T08:09:50;8.73;;;1.33;;
75823;SDS011;64457;51.976;9.834;2023-10-08T08:12:23;9.20;;;1.43;;
75823;SDS011;64457;51.976;9.834;2023-10-08T08:14:53;10.40;;;1.27;;
75823;SDS011;64457;51.976;9.834;2023-10-08T08:17:21;9.33;;;1.77;;
75823;SDS011;64457;51.976;9.834;2023-10-08T08:19:49;8.83;;;1.80;;
75823;SDS011;64457;51.976;9.834;2023-10-08T08:22:21;7.80;;;1.43;;
75823;SDS011;64457;51.976;9.834;2023-10-08T08:24:56;8.83;;;1.57;;
75823;SDS011;64457;51.976;9.834;2023-10-08T08:27:31;6.73;;;1.20;;
75823;SDS011;64457;51.976;9.834;2023-10-08T08:30:00;6.47;;;1.17;;
75823;SDS011;64457;51.976;9.834;2023-10-08T08:32:41;8.43;;;1.53;;
75823;SDS011;64457;51.976;9.834;2023-10-08T08:35:11;6.60;;;1.10;;
75823;SDS011;64457;51.976;9.834;2023-10-08T08:37:41;9.23;;;1.70;;
75823;SDS011;64457;51.976;9.834;2023-10-08T08:40:11;6.87;;;1.47;;
75823;SDS011;64457;51.976;9.834;2023-10-08T08:42:43;9.63;;;1.20;;
75823;SDS011;64457;51.976;9.834;2023-10-08T08:45:12;7.23;;;1.57;;
75823;SDS011;64457;51.976;9.834;2023-10-08T08:47:45;6.23;;;1.07;;
75823;SDS011;64457;51.976;9.834;2023-10-08T08:50:15;9.17;;;1.33;;
75823;SDS011;64457;51.976;9.834;2023-10-08T08:52:44;8.47;;;1.37;;
75823;SDS011;64457;51.976;9.834;2023-10-08T08:55:12;5.93;;;1.27;;
75823;SDS011;64457;51.976;9.834;2023-10-08T08:57:41;7.57;;;1.40;;
75823;SDS011;64457;51.976;9.834;2023-10-08T09:00:11;7.10;;;1.30;;
75823;SDS011;64457;51.976;9.834;2023-10-08T09:02:40;8.33;;;1.13;;
75823;SDS011;64457;51.976;9.834;2023-10-08T09:05:10;8.63;;;1.37;;
75823;SDS011;64457;51.976;9.834;2023-10-08T09:07:54;6.30;;;1.10;;
75823;SDS011;64457;51.976;9.834;2023-10-08T09:10:24;7.53;;;1.57;;
75823;SDS011;64457;51.976;9.834;2023-10-08T09:12:54;8.47;;;1.30;;
75823;SDS011;64457;51.976;9.834;2023-10-08T09:15:23;8.33;;;1.47;;
75823;SDS011;64457;51.976;9.834;2023-10-08T09:17:52;9.00;;;1.23;;
75823;SDS011;64457;51.976;9.834;2023-10-08T09:20:21;11.00;;;1.40;;
75823;SDS011;64457;51.976;9.834;2023-10-08T09:22:59;5.50;;;1.20;;
75823;SDS011;64457;51.976;9.834;2023-10-08T09:25:39;8.00;;;1.23;;
75823;SDS011;64457;51.976;9.834;2023-10-08T09:28:09;6.73;;;1.30;;
75823;SDS011;64457;51.976;9.834;2023-10-08T09:30:39;6.73;;;1.03;;
75823;SDS011;64457;51.976;9.834;2023-10-08T09:33:07;6.97;;;1.30;;
75823;SDS011;64457;51.976;9.834;2023-10-08T09:35:37;7.17;;;1.33;;
75823;SDS011;64457;51.976;9.834;2023-10-08T09:38:07;6.23;;;1.20;;
75823;SDS011;64457;51.976;9.834;2023-10-08T09:40:36;6.87;;;1.23;;
75823;SDS011;64457;51.976;9.834;2023-10-08T09:43:06;6.23;;;1.10;;
75823;SDS011;64457;51.976;9.834;2023-10-08T09:45:36;21.63;;;1.80;;
75823;SDS011;64457;51.976;9.834;2023-10-08T09:48:06;12.73;;;1.50;;
75823;SDS011;64457;51.976;9.834;2023-10-08T09:50:39;8.33;;;0.97;;
75823;SDS011;64457;51.976;9.834;2023-10-08T09:53:10;7.90;;;1.13;;
75823;SDS011;64457;51.976;9.834;2023-10-08T09:55:48;9.80;;;1.20;;
75823;SDS011;64457;51.976;9.834;2023-10-08T09:58:22;6.33;;;1.10;;
75823;SDS011;64457;51.976;9.834;2023-10-08T10:00:54;7.60;;;1.20;;
75823;SDS011;64457;51.976;9.834;2023-10-08T10:03:23;7.00;;;1.13;;
75823;SDS011;64457;51.976;9.834;2023-10-08T10:05:52;8.17;;;1.37;;
75823;SDS011;64457;51.976;9.834;2023-10-08T10:08:27;7.50;;;1.30;;
75823;SDS011;64457;51.976;9.834;2023-10-08T10:11:01;7.90;;;1.30;;
75823;SDS011;64457;51.976;9.834;2023-10-08T10:13:29;10.57;;;1.50;;
75823;SDS011;64457;51.976;9.834;2023-10-08T10:16:02;8.73;;;1.40;;
75823;SDS011;64457;51.976;9.834;2023-10-08T10:18:33;7.00;;;1.50;;
75823;SDS011;64457;51.976;9.834;2023-10-08T10:21:24;10.07;;;1.93;;
75823;SDS011;64457;51.976;9.834;2023-10-08T10:23:56;12.33;;;1.80;;
75823;SDS011;64457;51.976;9.834;2023-10-08T10:26:26;11.83;;;1.33;;
75823;SDS011;64457;51.976;9.834;2023-10-08T10:31:48;7.30;;;1.57;;
75823;SDS011;64457;51.976;9.834;2023-10-08T10:34:19;14.20;;;1.27;;
75823;SDS011;64457;51.976;9.834;2023-10-08T10:36:50;4.87;;;1.00;;
75823;SDS011;64457;51.976;9.834;2023-10-08T10:39:25;10.67;;;1.20;;
75823;SDS011;64457;51.976;9.834;2023-10-08T10:41:56;8.73;;;1.40;;
75823;SDS011;64457;51.976;9.834;2023-10-08T10:44:28;9.43;;;1.97;;
75823;SDS011;64457;51.976;9.834;2023-10-08T10:46:57;8.37;;;1.20;;
75823;SDS011;64457;51.976;9.834;2023-10-08T10:49:39;10.10;;;1.50;;
75823;SDS011;64457;51.976;9.834;2023-10-08T10:52:14;6.67;;;1.20;;
75823;SDS011;64457;51.976;9.834;2023-10-08T10:54:58;7.17;;;1.20;;
75823;SDS011;64457;51.976;9.834;2023-10-08T10:57:47;6.23;;;1.27;;
75823;SDS011;64457;51.976;9.834;2023-10-08T11:00:21;12.23;;;1.40;;
75823;SDS011;64457;51.976;9.834;2023-10-08T11:03:07;9.60;;;1.70;;
75823;SDS011;64457;51.976;9.834;2023-10-08T11:05:43;8.90;;;1.53;;
75823;SDS011;64457;51.976;9.834;2023-10-08T11:08:16;6.60;;;1.23;;
75823;SDS011;64457;51.976;9.834;2023-10-08T11:10:51;10.77;;;1.40;;
75823;SDS011;64457;51.976;9.834;2023-10-08T11:13:24;11.10;;;1.63;;
75823;SDS011;64457;51.976;9.834;2023-10-08T11:16:03;9.77;;;1.30;;
75823;SDS011;64457;51.976;9.834;2023-10-08T11:18:32;11.77;;;1.60;;
75823;SDS011;64457;51.976;9.834;2023-10-08T11:21:07;6.27;;;1.30;;
75823;SDS011;64457;51.976;9.834;2023-10-08T11:23:44;5.53;;;1.20;;
75823;SDS011;64457;51.976;9.834;2023-10-08T11:26:20;8.00;;;1.83;;
75823;SDS011;64457;51.976;9.834;2023-10-08T11:28:57;6.37;;;1.33;;
75823;SDS011;64457;51.976;9.834;2023-10-08T11:31:28;8.70;;;1.70;;
75823;SDS011;64457;51.976;9.834;2023-10-08T11:33:59;5.50;;;0.90;;
75823;SDS011;64457;51.976;9.834;2023-10-08T11:36:33;5.30;;;1.30;;
75823;SDS011;64457;51.976;9.834;2023-10-08T11:39:14;7.93;;;1.33;;
75823;SDS011;64457;51.976;9.834;2023-10-08T11:44:51;9.00;;;1.60;;
75823;SDS011;64457;51.976;9.834;2023-10-08T11:47:19;10.93;;;1.67;;
75823;SDS011;64457;51.976;9.834;2023-10-08T11:49:47;7.53;;;1.37;;
75823;SDS011;64457;51.976;9.834;2023-10-08T11:52:19;10.83;;;1.40;;
75823;SDS011;64457;51.976;9.834;2023-10-08T11:54:47;5.40;;;1.20;;
75823;SDS011;64457;51.976;9.834;2023-10-08T11:57:18;9.93;;;1.43;;
75823;SDS011;64457;51.976;9.834;2023-10-08T11:59:48;6.03;;;0.90;;
75823;SDS011;64457;51.976;9.834;2023-10-08T12:02:19;7.60;;;1.10;;
75823;SDS011;64457;51.976;9.834;2023-10-08T12:04:48;9.83;;;1.50;;
75823;SDS011;64457;51.976;9.834;2023-10-08T12:07:16;8.90;;;1.27;;
75823;SDS011;64457;51.976;9.834;2023-10-08T12:09:45;9.63;;;1.27;;
75823;SDS011;64457;51.976;9.834;2023-10-08T12:12:13;7.37;;;1.40;;
75823;SDS011;64457;51.976;9.834;2023-10-08T12:14:42;12.23;;;1.50;;
75823;SDS011;64457;51.976;9.834;2023-10-08T12:17:12;8.87;;;0.90;;
75823;SDS011;64457;51.976;9.834;2023-10-08T12:19:42;4.90;;;1.00;;
75823;SDS011;64457;51.976;9.834;2023-10-08T12:22:10;6.87;;;1.50;;
75823;SDS011;64457;51.976;9.834;2023-10-08T12:24:43;5.37;;;1.27;;
75823;SDS011;64457;51.976;9.834;2023-10-08T12:27:12;11.00;;;1.57;;
75823;SDS011;64457;51.976;9.834;2023-10-08T12:29:44;9.93;;;1.93;;
75823;SDS011;64457;51.976;9.834;2023-10-08T12:32:12;6.70;;;1.10;;
75823;SDS011;64457;51.976;9.834;2023-10-08T12:34:42;10.80;;;1.00;;
75823;SDS011;64457;51.976;9.834;2023-10-08T12:37:09;9.90;;;1.00;;
75823;SDS011;64457;51.976;9.834;2023-10-08T12:39:40;6.23;;;1.30;;
75823;SDS011;64457;51.976;9.834;2023-10-08T12:42:25;6.83;;;1.30;;
75823;SDS011;64457;51.976;9.834;2023-10-08T12:44:54;5.23;;;1.30;;
75823;SDS011;64457;51.976;9.834;2023-10-08T12:47:24;8.57;;;1.43;;
75823;SDS011;64457;51.976;9.834;2023-10-08T12:49:54;8.20;;;1.83;;
75823;SDS011;64457;51.976;9.834;2023-10-08T12:52:23;4.90;;;0.80;;
75823;SDS011;64457;51.976;9.834;2023-10-08T12:54:53;4.57;;;1.07;;
75823;SDS011;64457;51.976;9.834;2023-10-08T12:57:23;5.30;;;0.90;;
75823;SDS011;64457;51.976;9.834;2023-10-08T12:59:58;6.10;;;1.10;;
75823;SDS011;64457;51.976;9.834;2023-10-08T13:02:29;5.30;;;1.10;;
75823;SDS011;64457;51.976;9.834;2023-10-08T13:04:56;10.53;;;1.40;;
75823;SDS011;64457;51.976;9.834;2023-10-08T13:07:25;7.27;;;1.13;;
75823;SDS011;64457;51.976;9.834;2023-10-08T13:09:58;6.27;;;1.20;;
75823;SDS011;64457;51.976;9.834;2023-10-08T13:12:25;5.80;;;1.37;;
75823;SDS011;64457;51.976;9.834;2023-10-08T13:14:53;5.50;;;1.20;;
75823;SDS011;64457;51.976;9.834;2023-10-08T13:17:22;7.00;;;1.00;;
75823;SDS011;64457;51.976;9.834;2023-10-08T13:19:50;8.30;;;1.40;;
75823;SDS011;64457;51.976;9.834;2023-10-08T13:22:17;5.57;;;1.00;;
75823;SDS011;64457;51.976;9.834;2023-10-08T13:24:45;6.83;;;1.40;;
75823;SDS011;64457;51.976;9.834;2023-10-08T13:27:14;6.50;;;1.10;;
75823;SDS011;64457;51.976;9.834;2023-10-08T13:29:42;4.93;;;0.80;;
75823;SDS011;64457;51.976;9.834;2023-10-08T13:32:10;11.00;;;2.10;;
75823;SDS011;64457;51.976;9.834;2023-10-08T13:34:44;8.57;;;1.57;;
75823;SDS011;64457;51.976;9.834;2023-10-08T13:37:12;8.03;;;1.23;;
75823;SDS011;64457;51.976;9.834;2023-10-08T13:39:40;8.30;;;1.50;;
75823;SDS011;64457;51.976;9.834;2023-10-08T13:42:08;7.43;;;1.27;;
75823;SDS011;64457;51.976;9.834;2023-10-08T13:44:42;6.73;;;1.40;;
75823;SDS011;64457;51.976;9.834;2023-10-08T13:47:10;7.43;;;1.53;;
75823;SDS011;64457;51.976;9.834;2023-10-08T13:49:40;6.77;;;1.50;;
75823;SDS011;64457;51.976;9.834;2023-10-08T13:52:10;8.07;;;1.67;;
75823;SDS011;64457;51.976;9.834;2023-10-08T13:54:39;11.17;;;1.63;;
75823;SDS011;64457;51.976;9.834;2023-10-08T13:57:12;5.93;;;1.13;;
75823;SDS011;64457;51.976;9.834;2023-10-08T13:59:40;11.30;;;0.90;;
75823;SDS011;64457;51.976;9.834;2023-10-08T14:02:08;6.47;;;1.30;;
75823;SDS011;64457;51.976;9.834;2023-10-08T14:04:39;7.47;;;1.20;;
75823;SDS011;64457;51.976;9.834;2023-10-08T14:07:10;5.80;;;1.10;;
75823;SDS011;64457;51.976;9.834;2023-10-08T14:09:42;8.03;;;1.13;;
75823;SDS011;64457;51.976;9.834;2023-10-08T14:12:11;7.20;;;1.23;;
75823;SDS011;64457;51.976;9.834;2023-10-08T14:14:39;5.03;;;1.20;;
75823;SDS011;64457;51.976;9.834;2023-10-08T14:17:09;9.53;;;1.50;;
75823;SDS011;64457;51.976;9.834;2023-10-08T14:19:40;5.43;;;1.10;;
75823;SDS011;64457;51.976;9.834;2023-10-08T14:22:18;7.10;;;1.20;;
75823;SDS011;64457;51.976;9.834;2023-10-08T14:24:47;7.70;;;1.23;;
75823;SDS011;64457;51.976;9.834;2023-10-08T14:27:23;8.03;;;1.30;;
75823;SDS011;64457;51.976;9.834;2023-10-08T14:29:56;6.60;;;1.30;;
75823;SDS011;64457;51.976;9.834;2023-10-08T14:32:26;10.43;;;1.20;;
75823;SDS011;64457;51.976;9.834;2023-10-08T14:34:56;6.03;;;1.20;;
75823;SDS011;64457;51.976;9.834;2023-10-08T14:37:44;11.00;;;1.40;;
75823;SDS011;64457;51.976;9.834;2023-10-08T14:40:29;6.90;;;1.10;;
75823;SDS011;64457;51.976;9.834;2023-10-08T14:43:14;14.60;;;1.93;;
75823;SDS011;64457;51.976;9.834;2023-10-08T14:45:45;8.93;;;1.37;;
75823;SDS011;64457;51.976;9.834;2023-10-08T14:48:14;9.13;;;1.20;;
75823;SDS011;64457;51.976;9.834;2023-10-08T14:50:42;7.47;;;1.60;;
75823;SDS011;64457;51.976;9.834;2023-10-08T14:53:10;8.80;;;1.17;;
75823;SDS011;64457;51.976;9.834;2023-10-08T14:55:38;6.60;;;1.50;;
75823;SDS011;64457;51.976;9.834;2023-10-08T14:58:06;10.20;;;1.63;;
75823;SDS011;64457;51.976;9.834;2023-10-08T15:00:36;4.63;;;1.00;;
75823;SDS011;64457;51.976;9.834;2023-10-08T15:03:07;9.40;;;1.30;;
75823;SDS011;64457;51.976;9.834;2023-10-08T15:05:36;6.10;;;1.30;;
75823;SDS011;64457;51.976;9.834;2023-10-08T15:08:05;11.13;;;1.60;;
75823;SDS011;64457;51.976;9.834;2023-10-08T15:10:37;12.13;;;2.50;;
75823;SDS011;64457;51.976;9.834;2023-10-08T15:13:05;6.60;;;1.17;;
75823;SDS011;64457;51.976;9.834;2023-10-08T15:15:34;7.00;;;1.30;;
75823;SDS011;64457;51.976;9.834;2023-10-08T15:18:05;8.90;;;1.53;;
75823;SDS011;64457;51.976;9.834;2023-10-08T15:20:36;8.23;;;1.70;;
75823;SDS011;64457;51.976;9.834;2023-10-08T15:23:06;5.67;;;1.10;;